EGDX

MOD St. Athan Airport

St. Athan, United Kingdom
METAR EGDX 151850Z AUTO 31005KT 9999 NCD 05/01 Q1010
Observed Flight Rules
Dec-15 @ 18:50 UTC (46 minutes ago) Visual Flight Rules
Wind Visibility Clouds
310° at 5 knots 10,000+ meters
  • Clear skies
Temperatures Readings
Current 5°C / 41°F
Dewpoint 1°C / 34°F
Humidity 76%
Altimeter 29.82" Hg
Pressure 1010 hPa
Elevation 50
METAR EGDX 151850Z AUTO 31005KT 9999 NCD 05/01 Q1010
Observed Flight Rules
Dec-15 @ 18:50 UTC
(46 minutes ago)
VFR
Wind Visibility
310° at 5 knots 10,000+ meters
Clouds
  • Clear skies
Temperature Dewpoint
5°C / 41°F 1°C / 34°F
Humidity Altimeter Pressure
76% 29.82" Hg 1010 hPa